Terminal Aerodrome Forecast
Issued by NWS St Louis, MO

Home | Current Version | Previous Version | Text Only | Print | Product List | Glossary On
Versions: 1 2 3 4 5 6 7 8 9 10 11 12 13 14 15 16 17 18 19 20 21 22
000
FTUS43 KLSX 242300
TAFCOU
TAF
KCOU 242320Z 2500/2524 29012KT P6SM OVC013
     FM250300 25007KT P6SM OVC015
     FM250900 21007KT P6SM SCT020
     FM251500 18014KT P6SM SCT250=

USA.gov is the U.S. government's official web portal to all federal, state and local government web resources and services.